<?xml version="1.0" encoding="UTF-8" standalone="no" ?>
<gpx xmlns="http://www.topografix.com/GPX/1/1" xmlns:xsi="http://www.w3.org/2001/XMLSchema-instance" xsi:schemaLocation="http://www.topografix.com/GPX/1/1 http://www.topografix.com/GPX/1/1/gpx.xsd" version="1.1" creator="VisuGPX - https://www.visugpx.com">
  <metadata>
    <name>Arenes-garonne vers blagnac</name>
    <desc><![CDATA[Course le long de la garonne en direction de blagnac.
Aller-retour]]></desc>
  </metadata>
  <trk>
    <name><![CDATA[Arenes-garonne vers blagnac_1]]></name>
    <trkseg>
      <trkpt lat="43.59472" lon="1.41541">
        <ele>139.5</ele>
        <time>2017-03-03T11:15:23Z</time>
      </trkpt>
      <trkpt lat="43.59472" lon="1.41541">
        <ele>137.9</ele>
        <time>2017-03-03T11:15:23Z</time>
      </trkpt>
      <trkpt lat="43.59488" lon="1.41555">
        <ele>138</ele>
        <time>2017-03-03T11:15:29Z</time>
      </trkpt>
      <trkpt lat="43.59505" lon="1.41586">
        <ele>137.9</ele>
        <time>2017-03-03T11:15:35Z</time>
      </trkpt>
      <trkpt lat="43.59513" lon="1.4161">
        <ele>137.9</ele>
        <time>2017-03-03T11:15:45Z</time>
      </trkpt>
      <trkpt lat="43.59516" lon="1.41637">
        <ele>137.9</ele>
        <time>2017-03-03T11:15:55Z</time>
      </trkpt>
      <trkpt lat="43.59518" lon="1.41674">
        <ele>137.9</ele>
        <time>2017-03-03T11:16:03Z</time>
      </trkpt>
      <trkpt lat="43.59518" lon="1.41705">
        <ele>137.9</ele>
        <time>2017-03-03T11:16:14Z</time>
      </trkpt>
      <trkpt lat="43.59536" lon="1.41732">
        <ele>137.9</ele>
        <time>2017-03-03T11:16:23Z</time>
      </trkpt>
      <trkpt lat="43.59547" lon="1.41758">
        <ele>137.9</ele>
        <time>2017-03-03T11:16:33Z</time>
      </trkpt>
      <trkpt lat="43.59558" lon="1.41766">
        <ele>137.9</ele>
        <time>2017-03-03T11:16:53Z</time>
      </trkpt>
      <trkpt lat="43.59549" lon="1.41743">
        <ele>137.9</ele>
        <time>2017-03-03T11:17:34Z</time>
      </trkpt>
      <trkpt lat="43.59541" lon="1.41711">
        <ele>137.9</ele>
        <time>2017-03-03T11:17:44Z</time>
      </trkpt>
      <trkpt lat="43.59533" lon="1.41686">
        <ele>137.9</ele>
        <time>2017-03-03T11:17:53Z</time>
      </trkpt>
      <trkpt lat="43.59522" lon="1.41648">
        <ele>137.9</ele>
        <time>2017-03-03T11:18:03Z</time>
      </trkpt>
      <trkpt lat="43.59515" lon="1.41613">
        <ele>137.9</ele>
        <time>2017-03-03T11:18:13Z</time>
      </trkpt>
      <trkpt lat="43.59507" lon="1.41582">
        <ele>137.9</ele>
        <time>2017-03-03T11:18:23Z</time>
      </trkpt>
      <trkpt lat="43.59487" lon="1.41578">
        <ele>137.9</ele>
        <time>2017-03-03T11:18:34Z</time>
      </trkpt>
      <trkpt lat="43.59489" lon="1.41563">
        <ele>137.9</ele>
        <time>2017-03-03T11:18:54Z</time>
      </trkpt>
      <trkpt lat="43.59511" lon="1.41581">
        <ele>137.9</ele>
        <time>2017-03-03T11:19:04Z</time>
      </trkpt>
      <trkpt lat="43.5953" lon="1.41582">
        <ele>137.9</ele>
        <time>2017-03-03T11:19:16Z</time>
      </trkpt>
      <trkpt lat="43.59554" lon="1.41583">
        <ele>137.9</ele>
        <time>2017-03-03T11:19:26Z</time>
      </trkpt>
      <trkpt lat="43.59573" lon="1.41581">
        <ele>137.9</ele>
        <time>2017-03-03T11:19:39Z</time>
      </trkpt>
      <trkpt lat="43.5959" lon="1.41615">
        <ele>137.9</ele>
        <time>2017-03-03T11:19:47Z</time>
      </trkpt>
      <trkpt lat="43.59612" lon="1.41642">
        <ele>137.9</ele>
        <time>2017-03-03T11:19:56Z</time>
      </trkpt>
      <trkpt lat="43.59629" lon="1.41666">
        <ele>137.9</ele>
        <time>2017-03-03T11:20:06Z</time>
      </trkpt>
      <trkpt lat="43.59636" lon="1.41701">
        <ele>137.9</ele>
        <time>2017-03-03T11:20:16Z</time>
      </trkpt>
      <trkpt lat="43.59652" lon="1.41715">
        <ele>137.9</ele>
        <time>2017-03-03T11:20:26Z</time>
      </trkpt>
      <trkpt lat="43.5967" lon="1.4174">
        <ele>137.9</ele>
        <time>2017-03-03T11:20:36Z</time>
      </trkpt>
      <trkpt lat="43.59693" lon="1.41759">
        <ele>137.9</ele>
        <time>2017-03-03T11:20:46Z</time>
      </trkpt>
      <trkpt lat="43.59713" lon="1.41782">
        <ele>137.9</ele>
        <time>2017-03-03T11:20:56Z</time>
      </trkpt>
      <trkpt lat="43.5974" lon="1.41803">
        <ele>137.9</ele>
        <time>2017-03-03T11:21:06Z</time>
      </trkpt>
      <trkpt lat="43.59757" lon="1.41823">
        <ele>137.9</ele>
        <time>2017-03-03T11:21:18Z</time>
      </trkpt>
      <trkpt lat="43.59784" lon="1.41839">
        <ele>137.9</ele>
        <time>2017-03-03T11:21:25Z</time>
      </trkpt>
      <trkpt lat="43.59802" lon="1.41842">
        <ele>137.9</ele>
        <time>2017-03-03T11:21:35Z</time>
      </trkpt>
      <trkpt lat="43.59821" lon="1.41858">
        <ele>137.9</ele>
        <time>2017-03-03T11:21:46Z</time>
      </trkpt>
      <trkpt lat="43.5985" lon="1.41846">
        <ele>137.9</ele>
        <time>2017-03-03T11:21:54Z</time>
      </trkpt>
      <trkpt lat="43.59862" lon="1.41816">
        <ele>137.8</ele>
        <time>2017-03-03T11:22:04Z</time>
      </trkpt>
      <trkpt lat="43.5988" lon="1.41811">
        <ele>137.3</ele>
        <time>2017-03-03T11:22:16Z</time>
      </trkpt>
      <trkpt lat="43.59908" lon="1.41813">
        <ele>137</ele>
        <time>2017-03-03T11:22:22Z</time>
      </trkpt>
      <trkpt lat="43.59935" lon="1.41802">
        <ele>136.9</ele>
        <time>2017-03-03T11:22:29Z</time>
      </trkpt>
      <trkpt lat="43.59958" lon="1.41803">
        <ele>136.9</ele>
        <time>2017-03-03T11:22:39Z</time>
      </trkpt>
      <trkpt lat="43.59984" lon="1.41802">
        <ele>136.9</ele>
        <time>2017-03-03T11:22:49Z</time>
      </trkpt>
      <trkpt lat="43.60009" lon="1.41808">
        <ele>136.9</ele>
        <time>2017-03-03T11:22:59Z</time>
      </trkpt>
      <trkpt lat="43.60036" lon="1.41815">
        <ele>136.9</ele>
        <time>2017-03-03T11:23:07Z</time>
      </trkpt>
      <trkpt lat="43.60061" lon="1.41827">
        <ele>136.9</ele>
        <time>2017-03-03T11:23:17Z</time>
      </trkpt>
      <trkpt lat="43.60088" lon="1.41828">
        <ele>136.9</ele>
        <time>2017-03-03T11:23:26Z</time>
      </trkpt>
      <trkpt lat="43.60115" lon="1.41821">
        <ele>136</ele>
        <time>2017-03-03T11:23:36Z</time>
      </trkpt>
      <trkpt lat="43.6013" lon="1.41796">
        <ele>135.9</ele>
        <time>2017-03-03T11:23:46Z</time>
      </trkpt>
      <trkpt lat="43.60137" lon="1.4177">
        <ele>135.9</ele>
        <time>2017-03-03T11:23:56Z</time>
      </trkpt>
      <trkpt lat="43.60141" lon="1.41738">
        <ele>135.2</ele>
        <time>2017-03-03T11:24:06Z</time>
      </trkpt>
      <trkpt lat="43.60153" lon="1.41708">
        <ele>135.2</ele>
        <time>2017-03-03T11:24:16Z</time>
      </trkpt>
      <trkpt lat="43.6016" lon="1.41672">
        <ele>135.2</ele>
        <time>2017-03-03T11:24:26Z</time>
      </trkpt>
      <trkpt lat="43.60166" lon="1.41632">
        <ele>135.2</ele>
        <time>2017-03-03T11:24:35Z</time>
      </trkpt>
      <trkpt lat="43.6017" lon="1.41591">
        <ele>135.9</ele>
        <time>2017-03-03T11:24:44Z</time>
      </trkpt>
      <trkpt lat="43.60185" lon="1.41565">
        <ele>135.9</ele>
        <time>2017-03-03T11:24:54Z</time>
      </trkpt>
      <trkpt lat="43.60204" lon="1.41573">
        <ele>135.9</ele>
        <time>2017-03-03T11:25:09Z</time>
      </trkpt>
      <trkpt lat="43.60232" lon="1.41577">
        <ele>136</ele>
        <time>2017-03-03T11:25:17Z</time>
      </trkpt>
      <trkpt lat="43.60258" lon="1.41587">
        <ele>136.1</ele>
        <time>2017-03-03T11:25:27Z</time>
      </trkpt>
      <trkpt lat="43.60279" lon="1.41598">
        <ele>136.1</ele>
        <time>2017-03-03T11:25:37Z</time>
      </trkpt>
      <trkpt lat="43.603" lon="1.41627">
        <ele>136.1</ele>
        <time>2017-03-03T11:25:45Z</time>
      </trkpt>
      <trkpt lat="43.60323" lon="1.4165">
        <ele>136.1</ele>
        <time>2017-03-03T11:25:51Z</time>
      </trkpt>
      <trkpt lat="43.60346" lon="1.41672">
        <ele>135.9</ele>
        <time>2017-03-03T11:26:01Z</time>
      </trkpt>
      <trkpt lat="43.60368" lon="1.41695">
        <ele>135</ele>
        <time>2017-03-03T11:26:10Z</time>
      </trkpt>
      <trkpt lat="43.60389" lon="1.41715">
        <ele>133.7</ele>
        <time>2017-03-03T11:26:20Z</time>
      </trkpt>
      <trkpt lat="43.60411" lon="1.41731">
        <ele>133.1</ele>
        <time>2017-03-03T11:26:30Z</time>
      </trkpt>
      <trkpt lat="43.60436" lon="1.4175">
        <ele>133</ele>
        <time>2017-03-03T11:26:40Z</time>
      </trkpt>
      <trkpt lat="43.60453" lon="1.41779">
        <ele>132.9</ele>
        <time>2017-03-03T11:26:48Z</time>
      </trkpt>
      <trkpt lat="43.60477" lon="1.41787">
        <ele>132.9</ele>
        <time>2017-03-03T11:26:58Z</time>
      </trkpt>
      <trkpt lat="43.60487" lon="1.41759">
        <ele>133</ele>
        <time>2017-03-03T11:27:08Z</time>
      </trkpt>
      <trkpt lat="43.60498" lon="1.41727">
        <ele>133.3</ele>
        <time>2017-03-03T11:27:18Z</time>
      </trkpt>
      <trkpt lat="43.60513" lon="1.41695">
        <ele>134.5</ele>
        <time>2017-03-03T11:27:28Z</time>
      </trkpt>
      <trkpt lat="43.60527" lon="1.41664">
        <ele>135.8</ele>
        <time>2017-03-03T11:27:38Z</time>
      </trkpt>
      <trkpt lat="43.60539" lon="1.41636">
        <ele>135.9</ele>
        <time>2017-03-03T11:27:48Z</time>
      </trkpt>
      <trkpt lat="43.60552" lon="1.41608">
        <ele>136</ele>
        <time>2017-03-03T11:27:58Z</time>
      </trkpt>
      <trkpt lat="43.60564" lon="1.41581">
        <ele>136.1</ele>
        <time>2017-03-03T11:28:07Z</time>
      </trkpt>
      <trkpt lat="43.6057" lon="1.41567">
        <ele>136.1</ele>
        <time>2017-03-03T11:28:11Z</time>
      </trkpt>
      <trkpt lat="43.60588" lon="1.41543">
        <ele>136.1</ele>
        <time>2017-03-03T11:28:21Z</time>
      </trkpt>
      <trkpt lat="43.60607" lon="1.41513">
        <ele>136</ele>
        <time>2017-03-03T11:28:31Z</time>
      </trkpt>
      <trkpt lat="43.60621" lon="1.41488">
        <ele>136</ele>
        <time>2017-03-03T11:28:41Z</time>
      </trkpt>
      <trkpt lat="43.60637" lon="1.41462">
        <ele>136</ele>
        <time>2017-03-03T11:28:51Z</time>
      </trkpt>
      <trkpt lat="43.60653" lon="1.41433">
        <ele>135.8</ele>
        <time>2017-03-03T11:29:01Z</time>
      </trkpt>
      <trkpt lat="43.6067" lon="1.41407">
        <ele>135.6</ele>
        <time>2017-03-03T11:29:11Z</time>
      </trkpt>
      <trkpt lat="43.60687" lon="1.41377">
        <ele>135.5</ele>
        <time>2017-03-03T11:29:21Z</time>
      </trkpt>
      <trkpt lat="43.60706" lon="1.41352">
        <ele>135.5</ele>
        <time>2017-03-03T11:29:32Z</time>
      </trkpt>
      <trkpt lat="43.60724" lon="1.41325">
        <ele>135.5</ele>
        <time>2017-03-03T11:29:42Z</time>
      </trkpt>
      <trkpt lat="43.6074" lon="1.41298">
        <ele>135.6</ele>
        <time>2017-03-03T11:29:52Z</time>
      </trkpt>
      <trkpt lat="43.60755" lon="1.41275">
        <ele>135.6</ele>
        <time>2017-03-03T11:30:02Z</time>
      </trkpt>
      <trkpt lat="43.60773" lon="1.41244">
        <ele>135.6</ele>
        <time>2017-03-03T11:30:12Z</time>
      </trkpt>
      <trkpt lat="43.6079" lon="1.41216">
        <ele>135.6</ele>
        <time>2017-03-03T11:30:22Z</time>
      </trkpt>
      <trkpt lat="43.60801" lon="1.41181">
        <ele>135.5</ele>
        <time>2017-03-03T11:30:32Z</time>
      </trkpt>
      <trkpt lat="43.60811" lon="1.4116">
        <ele>135.4</ele>
        <time>2017-03-03T11:30:38Z</time>
      </trkpt>
      <trkpt lat="43.60811" lon="1.4115">
        <ele>135.3</ele>
        <time>2017-03-03T11:30:41Z</time>
      </trkpt>
      <trkpt lat="43.60814" lon="1.41141">
        <ele>135.3</ele>
        <time>2017-03-03T11:30:43Z</time>
      </trkpt>
      <trkpt lat="43.60814" lon="1.41122">
        <ele>135.3</ele>
        <time>2017-03-03T11:30:49Z</time>
      </trkpt>
      <trkpt lat="43.60816" lon="1.41109">
        <ele>135.2</ele>
        <time>2017-03-03T11:30:54Z</time>
      </trkpt>
      <trkpt lat="43.60814" lon="1.41092">
        <ele>134.6</ele>
        <time>2017-03-03T11:31:00Z</time>
      </trkpt>
      <trkpt lat="43.60829" lon="1.41095">
        <ele>133.6</ele>
        <time>2017-03-03T11:31:20Z</time>
      </trkpt>
      <trkpt lat="43.60835" lon="1.41104">
        <ele>133.6</ele>
        <time>2017-03-03T11:31:25Z</time>
      </trkpt>
      <trkpt lat="43.60842" lon="1.41114">
        <ele>133.6</ele>
        <time>2017-03-03T11:31:29Z</time>
      </trkpt>
      <trkpt lat="43.60846" lon="1.4112">
        <ele>133.9</ele>
        <time>2017-03-03T11:31:31Z</time>
      </trkpt>
      <trkpt lat="43.60849" lon="1.41125">
        <ele>133.9</ele>
        <time>2017-03-03T11:31:33Z</time>
      </trkpt>
      <trkpt lat="43.60853" lon="1.41138">
        <ele>135.2</ele>
        <time>2017-03-03T11:31:36Z</time>
      </trkpt>
      <trkpt lat="43.60861" lon="1.41152">
        <ele>136.3</ele>
        <time>2017-03-03T11:31:41Z</time>
      </trkpt>
      <trkpt lat="43.60869" lon="1.41165">
        <ele>138.4</ele>
        <time>2017-03-03T11:31:46Z</time>
      </trkpt>
      <trkpt lat="43.60875" lon="1.41177">
        <ele>139.4</ele>
        <time>2017-03-03T11:31:50Z</time>
      </trkpt>
      <trkpt lat="43.60883" lon="1.41197">
        <ele>139.5</ele>
        <time>2017-03-03T11:31:56Z</time>
      </trkpt>
      <trkpt lat="43.6089" lon="1.41208">
        <ele>139.7</ele>
        <time>2017-03-03T11:32:00Z</time>
      </trkpt>
      <trkpt lat="43.60896" lon="1.41218">
        <ele>139.8</ele>
        <time>2017-03-03T11:32:04Z</time>
      </trkpt>
      <trkpt lat="43.60902" lon="1.41231">
        <ele>139.9</ele>
        <time>2017-03-03T11:32:08Z</time>
      </trkpt>
      <trkpt lat="43.60908" lon="1.41242">
        <ele>140</ele>
        <time>2017-03-03T11:32:12Z</time>
      </trkpt>
      <trkpt lat="43.60916" lon="1.41263">
        <ele>140.1</ele>
        <time>2017-03-03T11:32:19Z</time>
      </trkpt>
      <trkpt lat="43.60919" lon="1.41269">
        <ele>140.1</ele>
        <time>2017-03-03T11:32:21Z</time>
      </trkpt>
      <trkpt lat="43.60922" lon="1.41275">
        <ele>140.1</ele>
        <time>2017-03-03T11:32:23Z</time>
      </trkpt>
      <trkpt lat="43.60927" lon="1.41288">
        <ele>140.2</ele>
        <time>2017-03-03T11:32:28Z</time>
      </trkpt>
      <trkpt lat="43.60933" lon="1.41304">
        <ele>140.3</ele>
        <time>2017-03-03T11:32:33Z</time>
      </trkpt>
      <trkpt lat="43.60925" lon="1.41316">
        <ele>140.4</ele>
        <time>2017-03-03T11:32:43Z</time>
      </trkpt>
      <trkpt lat="43.60928" lon="1.41311">
        <ele>140.4</ele>
        <time>2017-03-03T11:32:48Z</time>
      </trkpt>
      <trkpt lat="43.60933" lon="1.41305">
        <ele>140.4</ele>
        <time>2017-03-03T11:32:51Z</time>
      </trkpt>
      <trkpt lat="43.60935" lon="1.41304">
        <ele>140.4</ele>
        <time>2017-03-03T11:32:53Z</time>
      </trkpt>
      <trkpt lat="43.60931" lon="1.41278">
        <ele>140.2</ele>
        <time>2017-03-03T11:33:03Z</time>
      </trkpt>
      <trkpt lat="43.60944" lon="1.41241">
        <ele>138.2</ele>
        <time>2017-03-03T11:33:11Z</time>
      </trkpt>
      <trkpt lat="43.60965" lon="1.41213">
        <ele>135.4</ele>
        <time>2017-03-03T11:33:21Z</time>
      </trkpt>
      <trkpt lat="43.60978" lon="1.41188">
        <ele>135.2</ele>
        <time>2017-03-03T11:33:31Z</time>
      </trkpt>
      <trkpt lat="43.60997" lon="1.41163">
        <ele>135.1</ele>
        <time>2017-03-03T11:33:41Z</time>
      </trkpt>
      <trkpt lat="43.61018" lon="1.41138">
        <ele>135.1</ele>
        <time>2017-03-03T11:33:49Z</time>
      </trkpt>
      <trkpt lat="43.61035" lon="1.41111">
        <ele>135.1</ele>
        <time>2017-03-03T11:33:59Z</time>
      </trkpt>
      <trkpt lat="43.6106" lon="1.41093">
        <ele>135.1</ele>
        <time>2017-03-03T11:34:06Z</time>
      </trkpt>
      <trkpt lat="43.61078" lon="1.41069">
        <ele>135.1</ele>
        <time>2017-03-03T11:34:16Z</time>
      </trkpt>
      <trkpt lat="43.61096" lon="1.41047">
        <ele>135.1</ele>
        <time>2017-03-03T11:34:26Z</time>
      </trkpt>
      <trkpt lat="43.61118" lon="1.4103">
        <ele>135</ele>
        <time>2017-03-03T11:34:34Z</time>
      </trkpt>
      <trkpt lat="43.61128" lon="1.41019">
        <ele>135</ele>
        <time>2017-03-03T11:34:38Z</time>
      </trkpt>
      <trkpt lat="43.61142" lon="1.40999">
        <ele>135</ele>
        <time>2017-03-03T11:34:48Z</time>
      </trkpt>
      <trkpt lat="43.61163" lon="1.40974">
        <ele>135</ele>
        <time>2017-03-03T11:34:57Z</time>
      </trkpt>
      <trkpt lat="43.61171" lon="1.40969">
        <ele>135</ele>
        <time>2017-03-03T11:35:01Z</time>
      </trkpt>
      <trkpt lat="43.61179" lon="1.40959">
        <ele>135</ele>
        <time>2017-03-03T11:35:05Z</time>
      </trkpt>
      <trkpt lat="43.6119" lon="1.40949">
        <ele>135</ele>
        <time>2017-03-03T11:35:10Z</time>
      </trkpt>
      <trkpt lat="43.61211" lon="1.40926">
        <ele>135.1</ele>
        <time>2017-03-03T11:35:20Z</time>
      </trkpt>
      <trkpt lat="43.6122" lon="1.40918">
        <ele>135.1</ele>
        <time>2017-03-03T11:35:25Z</time>
      </trkpt>
      <trkpt lat="43.6124" lon="1.40896">
        <ele>135.1</ele>
        <time>2017-03-03T11:35:34Z</time>
      </trkpt>
      <trkpt lat="43.61246" lon="1.40882">
        <ele>135.1</ele>
        <time>2017-03-03T11:35:40Z</time>
      </trkpt>
      <trkpt lat="43.61253" lon="1.4087">
        <ele>135.1</ele>
        <time>2017-03-03T11:35:46Z</time>
      </trkpt>
      <trkpt lat="43.61261" lon="1.40859">
        <ele>135.1</ele>
        <time>2017-03-03T11:35:51Z</time>
      </trkpt>
      <trkpt lat="43.61279" lon="1.40837">
        <ele>134.9</ele>
        <time>2017-03-03T11:36:01Z</time>
      </trkpt>
      <trkpt lat="43.61303" lon="1.40816">
        <ele>134.8</ele>
        <time>2017-03-03T11:36:11Z</time>
      </trkpt>
      <trkpt lat="43.61316" lon="1.40804">
        <ele>134.8</ele>
        <time>2017-03-03T11:36:17Z</time>
      </trkpt>
      <trkpt lat="43.61337" lon="1.40779">
        <ele>134.8</ele>
        <time>2017-03-03T11:36:27Z</time>
      </trkpt>
      <trkpt lat="43.61347" lon="1.4077">
        <ele>134.8</ele>
        <time>2017-03-03T11:36:32Z</time>
      </trkpt>
      <trkpt lat="43.6137" lon="1.4075">
        <ele>134.7</ele>
        <time>2017-03-03T11:36:42Z</time>
      </trkpt>
      <trkpt lat="43.61383" lon="1.40731">
        <ele>134.7</ele>
        <time>2017-03-03T11:36:51Z</time>
      </trkpt>
      <trkpt lat="43.61405" lon="1.40709">
        <ele>134.7</ele>
        <time>2017-03-03T11:37:00Z</time>
      </trkpt>
      <trkpt lat="43.61419" lon="1.40692">
        <ele>134.6</ele>
        <time>2017-03-03T11:37:10Z</time>
      </trkpt>
      <trkpt lat="43.61438" lon="1.40669">
        <ele>134.6</ele>
        <time>2017-03-03T11:37:20Z</time>
      </trkpt>
      <trkpt lat="43.61446" lon="1.40653">
        <ele>134.4</ele>
        <time>2017-03-03T11:37:27Z</time>
      </trkpt>
      <trkpt lat="43.61462" lon="1.40632">
        <ele>134.3</ele>
        <time>2017-03-03T11:37:37Z</time>
      </trkpt>
      <trkpt lat="43.61484" lon="1.40612">
        <ele>134.3</ele>
        <time>2017-03-03T11:37:47Z</time>
      </trkpt>
      <trkpt lat="43.61495" lon="1.40599">
        <ele>134.3</ele>
        <time>2017-03-03T11:37:53Z</time>
      </trkpt>
      <trkpt lat="43.61506" lon="1.40588">
        <ele>134.3</ele>
        <time>2017-03-03T11:37:59Z</time>
      </trkpt>
      <trkpt lat="43.61516" lon="1.40577">
        <ele>134.3</ele>
        <time>2017-03-03T11:38:02Z</time>
      </trkpt>
      <trkpt lat="43.61529" lon="1.40566">
        <ele>134.3</ele>
        <time>2017-03-03T11:38:09Z</time>
      </trkpt>
      <trkpt lat="43.6154" lon="1.40558">
        <ele>134.3</ele>
        <time>2017-03-03T11:38:14Z</time>
      </trkpt>
      <trkpt lat="43.61557" lon="1.40539">
        <ele>134.3</ele>
        <time>2017-03-03T11:38:24Z</time>
      </trkpt>
      <trkpt lat="43.6158" lon="1.40525">
        <ele>134.3</ele>
        <time>2017-03-03T11:38:34Z</time>
      </trkpt>
      <trkpt lat="43.616" lon="1.40511">
        <ele>134.3</ele>
        <time>2017-03-03T11:38:44Z</time>
      </trkpt>
      <trkpt lat="43.61621" lon="1.40487">
        <ele>134.4</ele>
        <time>2017-03-03T11:38:54Z</time>
      </trkpt>
      <trkpt lat="43.61648" lon="1.40475">
        <ele>134.4</ele>
        <time>2017-03-03T11:39:04Z</time>
      </trkpt>
      <trkpt lat="43.61659" lon="1.40463">
        <ele>134.5</ele>
        <time>2017-03-03T11:39:10Z</time>
      </trkpt>
      <trkpt lat="43.61672" lon="1.40454">
        <ele>134.5</ele>
        <time>2017-03-03T11:39:15Z</time>
      </trkpt>
      <trkpt lat="43.61684" lon="1.40444">
        <ele>134.5</ele>
        <time>2017-03-03T11:39:21Z</time>
      </trkpt>
      <trkpt lat="43.61703" lon="1.40434">
        <ele>134.4</ele>
        <time>2017-03-03T11:39:31Z</time>
      </trkpt>
      <trkpt lat="43.61729" lon="1.40421">
        <ele>134.4</ele>
        <time>2017-03-03T11:39:41Z</time>
      </trkpt>
      <trkpt lat="43.61755" lon="1.40411">
        <ele>134.4</ele>
        <time>2017-03-03T11:39:48Z</time>
      </trkpt>
      <trkpt lat="43.61778" lon="1.40402">
        <ele>134.2</ele>
        <time>2017-03-03T11:39:58Z</time>
      </trkpt>
      <trkpt lat="43.61792" lon="1.40396">
        <ele>134.1</ele>
        <time>2017-03-03T11:40:05Z</time>
      </trkpt>
      <trkpt lat="43.61809" lon="1.40389">
        <ele>134</ele>
        <time>2017-03-03T11:40:15Z</time>
      </trkpt>
      <trkpt lat="43.61828" lon="1.40378">
        <ele>134</ele>
        <time>2017-03-03T11:40:25Z</time>
      </trkpt>
      <trkpt lat="43.61851" lon="1.40374">
        <ele>133.9</ele>
        <time>2017-03-03T11:40:33Z</time>
      </trkpt>
      <trkpt lat="43.61877" lon="1.40361">
        <ele>134</ele>
        <time>2017-03-03T11:40:42Z</time>
      </trkpt>
      <trkpt lat="43.61892" lon="1.40354">
        <ele>133.9</ele>
        <time>2017-03-03T11:40:51Z</time>
      </trkpt>
      <trkpt lat="43.61902" lon="1.40349">
        <ele>133.9</ele>
        <time>2017-03-03T11:40:55Z</time>
      </trkpt>
      <trkpt lat="43.61924" lon="1.40341">
        <ele>133.9</ele>
        <time>2017-03-03T11:41:05Z</time>
      </trkpt>
      <trkpt lat="43.61939" lon="1.40333">
        <ele>133.9</ele>
        <time>2017-03-03T11:41:13Z</time>
      </trkpt>
      <trkpt lat="43.61966" lon="1.40322">
        <ele>133.9</ele>
        <time>2017-03-03T11:41:23Z</time>
      </trkpt>
      <trkpt lat="43.61994" lon="1.40313">
        <ele>133.9</ele>
        <time>2017-03-03T11:41:32Z</time>
      </trkpt>
      <trkpt lat="43.62014" lon="1.40305">
        <ele>133.9</ele>
        <time>2017-03-03T11:41:42Z</time>
      </trkpt>
      <trkpt lat="43.62033" lon="1.403">
        <ele>133.9</ele>
        <time>2017-03-03T11:41:49Z</time>
      </trkpt>
      <trkpt lat="43.62045" lon="1.40296">
        <ele>133.9</ele>
        <time>2017-03-03T11:41:53Z</time>
      </trkpt>
      <trkpt lat="43.62071" lon="1.40283">
        <ele>133.9</ele>
        <time>2017-03-03T11:42:02Z</time>
      </trkpt>
      <trkpt lat="43.62085" lon="1.40279">
        <ele>133.9</ele>
        <time>2017-03-03T11:42:10Z</time>
      </trkpt>
      <trkpt lat="43.62099" lon="1.40277">
        <ele>133.9</ele>
        <time>2017-03-03T11:42:17Z</time>
      </trkpt>
      <trkpt lat="43.6211" lon="1.40273">
        <ele>133.9</ele>
        <time>2017-03-03T11:42:21Z</time>
      </trkpt>
      <trkpt lat="43.62133" lon="1.40268">
        <ele>133.9</ele>
        <time>2017-03-03T11:42:31Z</time>
      </trkpt>
      <trkpt lat="43.62162" lon="1.40262">
        <ele>133.8</ele>
        <time>2017-03-03T11:42:39Z</time>
      </trkpt>
      <trkpt lat="43.62175" lon="1.40259">
        <ele>133.8</ele>
        <time>2017-03-03T11:42:44Z</time>
      </trkpt>
      <trkpt lat="43.62191" lon="1.40256">
        <ele>133.8</ele>
        <time>2017-03-03T11:42:52Z</time>
      </trkpt>
      <trkpt lat="43.622" lon="1.40253">
        <ele>133.7</ele>
        <time>2017-03-03T11:42:56Z</time>
      </trkpt>
      <trkpt lat="43.62218" lon="1.40248">
        <ele>133.7</ele>
        <time>2017-03-03T11:43:06Z</time>
      </trkpt>
      <trkpt lat="43.62246" lon="1.40243">
        <ele>133.7</ele>
        <time>2017-03-03T11:43:15Z</time>
      </trkpt>
      <trkpt lat="43.62274" lon="1.40233">
        <ele>133.7</ele>
        <time>2017-03-03T11:43:24Z</time>
      </trkpt>
      <trkpt lat="43.62259" lon="1.40232">
        <ele>133.6</ele>
        <time>2017-03-03T11:43:37Z</time>
      </trkpt>
      <trkpt lat="43.62248" lon="1.40232">
        <ele>133.6</ele>
        <time>2017-03-03T11:43:41Z</time>
      </trkpt>
      <trkpt lat="43.62236" lon="1.40235">
        <ele>133.6</ele>
        <time>2017-03-03T11:43:45Z</time>
      </trkpt>
      <trkpt lat="43.62207" lon="1.40245">
        <ele>133.6</ele>
        <time>2017-03-03T11:43:55Z</time>
      </trkpt>
      <trkpt lat="43.62177" lon="1.40251">
        <ele>133.6</ele>
        <time>2017-03-03T11:44:04Z</time>
      </trkpt>
      <trkpt lat="43.62154" lon="1.40261">
        <ele>133.6</ele>
        <time>2017-03-03T11:44:14Z</time>
      </trkpt>
      <trkpt lat="43.62127" lon="1.40269">
        <ele>134.1</ele>
        <time>2017-03-03T11:44:23Z</time>
      </trkpt>
      <trkpt lat="43.621" lon="1.4028">
        <ele>134.5</ele>
        <time>2017-03-03T11:44:32Z</time>
      </trkpt>
      <trkpt lat="43.62075" lon="1.40289">
        <ele>134.6</ele>
        <time>2017-03-03T11:44:42Z</time>
      </trkpt>
      <trkpt lat="43.62048" lon="1.40295">
        <ele>134.7</ele>
        <time>2017-03-03T11:44:51Z</time>
      </trkpt>
      <trkpt lat="43.62025" lon="1.40305">
        <ele>134.8</ele>
        <time>2017-03-03T11:45:01Z</time>
      </trkpt>
      <trkpt lat="43.62016" lon="1.40308">
        <ele>134.8</ele>
        <time>2017-03-03T11:45:04Z</time>
      </trkpt>
      <trkpt lat="43.62005" lon="1.40314">
        <ele>134.8</ele>
        <time>2017-03-03T11:45:09Z</time>
      </trkpt>
      <trkpt lat="43.61989" lon="1.40319">
        <ele>134.8</ele>
        <time>2017-03-03T11:45:15Z</time>
      </trkpt>
      <trkpt lat="43.61962" lon="1.40329">
        <ele>134.9</ele>
        <time>2017-03-03T11:45:25Z</time>
      </trkpt>
      <trkpt lat="43.61937" lon="1.40335">
        <ele>135</ele>
        <time>2017-03-03T11:45:35Z</time>
      </trkpt>
      <trkpt lat="43.61909" lon="1.40345">
        <ele>135</ele>
        <time>2017-03-03T11:45:44Z</time>
      </trkpt>
      <trkpt lat="43.61902" lon="1.40345">
        <ele>135</ele>
        <time>2017-03-03T11:45:46Z</time>
      </trkpt>
      <trkpt lat="43.61895" lon="1.40349">
        <ele>135</ele>
        <time>2017-03-03T11:45:48Z</time>
      </trkpt>
      <trkpt lat="43.61891" lon="1.40352">
        <ele>135</ele>
        <time>2017-03-03T11:45:50Z</time>
      </trkpt>
      <trkpt lat="43.61881" lon="1.40357">
        <ele>135</ele>
        <time>2017-03-03T11:45:53Z</time>
      </trkpt>
      <trkpt lat="43.61857" lon="1.40364">
        <ele>135</ele>
        <time>2017-03-03T11:46:01Z</time>
      </trkpt>
      <trkpt lat="43.61847" lon="1.40368">
        <ele>135.1</ele>
        <time>2017-03-03T11:46:05Z</time>
      </trkpt>
      <trkpt lat="43.61838" lon="1.40374">
        <ele>135.2</ele>
        <time>2017-03-03T11:46:09Z</time>
      </trkpt>
      <trkpt lat="43.61829" lon="1.40376">
        <ele>135.3</ele>
        <time>2017-03-03T11:46:12Z</time>
      </trkpt>
      <trkpt lat="43.61818" lon="1.40381">
        <ele>135.4</ele>
        <time>2017-03-03T11:46:16Z</time>
      </trkpt>
      <trkpt lat="43.61792" lon="1.40398">
        <ele>135.4</ele>
        <time>2017-03-03T11:46:26Z</time>
      </trkpt>
      <trkpt lat="43.61768" lon="1.40409">
        <ele>135.5</ele>
        <time>2017-03-03T11:46:36Z</time>
      </trkpt>
      <trkpt lat="43.61747" lon="1.40435">
        <ele>135.6</ele>
        <time>2017-03-03T11:46:46Z</time>
      </trkpt>
      <trkpt lat="43.61719" lon="1.4045">
        <ele>135.7</ele>
        <time>2017-03-03T11:46:56Z</time>
      </trkpt>
      <trkpt lat="43.61691" lon="1.40446">
        <ele>135.9</ele>
        <time>2017-03-03T11:47:06Z</time>
      </trkpt>
      <trkpt lat="43.61664" lon="1.40456">
        <ele>136</ele>
        <time>2017-03-03T11:47:15Z</time>
      </trkpt>
      <trkpt lat="43.61643" lon="1.40469">
        <ele>136.1</ele>
        <time>2017-03-03T11:47:25Z</time>
      </trkpt>
      <trkpt lat="43.61623" lon="1.40482">
        <ele>136.1</ele>
        <time>2017-03-03T11:47:35Z</time>
      </trkpt>
      <trkpt lat="43.61602" lon="1.40495">
        <ele>136.1</ele>
        <time>2017-03-03T11:47:45Z</time>
      </trkpt>
      <trkpt lat="43.61576" lon="1.40517">
        <ele>136.2</ele>
        <time>2017-03-03T11:47:55Z</time>
      </trkpt>
      <trkpt lat="43.61554" lon="1.40541">
        <ele>136.3</ele>
        <time>2017-03-03T11:48:05Z</time>
      </trkpt>
      <trkpt lat="43.61532" lon="1.40562">
        <ele>136.4</ele>
        <time>2017-03-03T11:48:15Z</time>
      </trkpt>
      <trkpt lat="43.6151" lon="1.40587">
        <ele>136.5</ele>
        <time>2017-03-03T11:48:24Z</time>
      </trkpt>
      <trkpt lat="43.6149" lon="1.40614">
        <ele>137.4</ele>
        <time>2017-03-03T11:48:34Z</time>
      </trkpt>
      <trkpt lat="43.6147" lon="1.40635">
        <ele>137.4</ele>
        <time>2017-03-03T11:48:44Z</time>
      </trkpt>
      <trkpt lat="43.61449" lon="1.40654">
        <ele>137.4</ele>
        <time>2017-03-03T11:48:54Z</time>
      </trkpt>
      <trkpt lat="43.61423" lon="1.40674">
        <ele>137.4</ele>
        <time>2017-03-03T11:49:04Z</time>
      </trkpt>
      <trkpt lat="43.614" lon="1.40699">
        <ele>137.4</ele>
        <time>2017-03-03T11:49:12Z</time>
      </trkpt>
      <trkpt lat="43.61377" lon="1.40725">
        <ele>137.4</ele>
        <time>2017-03-03T11:49:22Z</time>
      </trkpt>
      <trkpt lat="43.61359" lon="1.40744">
        <ele>137.4</ele>
        <time>2017-03-03T11:49:32Z</time>
      </trkpt>
      <trkpt lat="43.61338" lon="1.4077">
        <ele>137.6</ele>
        <time>2017-03-03T11:49:42Z</time>
      </trkpt>
      <trkpt lat="43.61317" lon="1.40795">
        <ele>137.8</ele>
        <time>2017-03-03T11:49:51Z</time>
      </trkpt>
      <trkpt lat="43.61296" lon="1.40817">
        <ele>137.8</ele>
        <time>2017-03-03T11:50:01Z</time>
      </trkpt>
      <trkpt lat="43.61274" lon="1.40841">
        <ele>137.9</ele>
        <time>2017-03-03T11:50:10Z</time>
      </trkpt>
      <trkpt lat="43.61255" lon="1.40867">
        <ele>137.9</ele>
        <time>2017-03-03T11:50:18Z</time>
      </trkpt>
      <trkpt lat="43.61232" lon="1.40889">
        <ele>138</ele>
        <time>2017-03-03T11:50:28Z</time>
      </trkpt>
      <trkpt lat="43.61211" lon="1.40912">
        <ele>138.1</ele>
        <time>2017-03-03T11:50:38Z</time>
      </trkpt>
      <trkpt lat="43.6119" lon="1.40937">
        <ele>138.2</ele>
        <time>2017-03-03T11:50:48Z</time>
      </trkpt>
      <trkpt lat="43.61166" lon="1.40956">
        <ele>138.2</ele>
        <time>2017-03-03T11:50:58Z</time>
      </trkpt>
      <trkpt lat="43.61149" lon="1.40976">
        <ele>138.3</ele>
        <time>2017-03-03T11:51:08Z</time>
      </trkpt>
      <trkpt lat="43.61124" lon="1.40995">
        <ele>138.4</ele>
        <time>2017-03-03T11:51:16Z</time>
      </trkpt>
      <trkpt lat="43.61105" lon="1.41026">
        <ele>138.6</ele>
        <time>2017-03-03T11:51:26Z</time>
      </trkpt>
      <trkpt lat="43.61085" lon="1.41054">
        <ele>139.1</ele>
        <time>2017-03-03T11:51:36Z</time>
      </trkpt>
      <trkpt lat="43.6107" lon="1.41078">
        <ele>139.2</ele>
        <time>2017-03-03T11:51:46Z</time>
      </trkpt>
      <trkpt lat="43.6105" lon="1.41109">
        <ele>139.3</ele>
        <time>2017-03-03T11:51:56Z</time>
      </trkpt>
      <trkpt lat="43.61028" lon="1.41133">
        <ele>139.3</ele>
        <time>2017-03-03T11:52:05Z</time>
      </trkpt>
      <trkpt lat="43.61012" lon="1.41164">
        <ele>139.4</ele>
        <time>2017-03-03T11:52:15Z</time>
      </trkpt>
      <trkpt lat="43.60995" lon="1.41191">
        <ele>139.6</ele>
        <time>2017-03-03T11:52:25Z</time>
      </trkpt>
      <trkpt lat="43.60982" lon="1.41221">
        <ele>139.7</ele>
        <time>2017-03-03T11:52:35Z</time>
      </trkpt>
      <trkpt lat="43.60969" lon="1.41246">
        <ele>139.7</ele>
        <time>2017-03-03T11:52:45Z</time>
      </trkpt>
      <trkpt lat="43.60968" lon="1.41259">
        <ele>139.7</ele>
        <time>2017-03-03T11:52:49Z</time>
      </trkpt>
      <trkpt lat="43.60966" lon="1.41269">
        <ele>139.7</ele>
        <time>2017-03-03T11:52:52Z</time>
      </trkpt>
      <trkpt lat="43.60962" lon="1.41273">
        <ele>139.7</ele>
        <time>2017-03-03T11:52:54Z</time>
      </trkpt>
      <trkpt lat="43.60965" lon="1.41274">
        <ele>139.7</ele>
        <time>2017-03-03T11:52:58Z</time>
      </trkpt>
      <trkpt lat="43.60958" lon="1.41288">
        <ele>139.6</ele>
        <time>2017-03-03T11:53:03Z</time>
      </trkpt>
      <trkpt lat="43.60952" lon="1.41302">
        <ele>139.5</ele>
        <time>2017-03-03T11:53:06Z</time>
      </trkpt>
      <trkpt lat="43.60933" lon="1.41313">
        <ele>139.5</ele>
        <time>2017-03-03T11:53:16Z</time>
      </trkpt>
      <trkpt lat="43.60929" lon="1.41289">
        <ele>139.5</ele>
        <time>2017-03-03T11:53:34Z</time>
      </trkpt>
      <trkpt lat="43.60913" lon="1.41263">
        <ele>140</ele>
        <time>2017-03-03T11:53:44Z</time>
      </trkpt>
      <trkpt lat="43.60901" lon="1.41229">
        <ele>141.8</ele>
        <time>2017-03-03T11:53:53Z</time>
      </trkpt>
      <trkpt lat="43.60883" lon="1.41194">
        <ele>142.9</ele>
        <time>2017-03-03T11:54:03Z</time>
      </trkpt>
      <trkpt lat="43.60872" lon="1.41159">
        <ele>143.5</ele>
        <time>2017-03-03T11:54:10Z</time>
      </trkpt>
      <trkpt lat="43.60854" lon="1.41129">
        <ele>143.9</ele>
        <time>2017-03-03T11:54:20Z</time>
      </trkpt>
      <trkpt lat="43.6084" lon="1.41093">
        <ele>143.9</ele>
        <time>2017-03-03T11:54:29Z</time>
      </trkpt>
      <trkpt lat="43.60829" lon="1.41081">
        <ele>144</ele>
        <time>2017-03-03T11:54:33Z</time>
      </trkpt>
      <trkpt lat="43.6082" lon="1.41085">
        <ele>144</ele>
        <time>2017-03-03T11:54:46Z</time>
      </trkpt>
      <trkpt lat="43.60801" lon="1.41056">
        <ele>143.9</ele>
        <time>2017-03-03T11:54:56Z</time>
      </trkpt>
      <trkpt lat="43.6078" lon="1.41036">
        <ele>143.5</ele>
        <time>2017-03-03T11:55:06Z</time>
      </trkpt>
      <trkpt lat="43.60772" lon="1.41012">
        <ele>139.2</ele>
        <time>2017-03-03T11:55:16Z</time>
      </trkpt>
      <trkpt lat="43.60759" lon="1.40983">
        <ele>138.2</ele>
        <time>2017-03-03T11:55:26Z</time>
      </trkpt>
      <trkpt lat="43.60744" lon="1.40951">
        <ele>138.2</ele>
        <time>2017-03-03T11:55:32Z</time>
      </trkpt>
      <trkpt lat="43.60738" lon="1.4094">
        <ele>138.2</ele>
        <time>2017-03-03T11:55:35Z</time>
      </trkpt>
      <trkpt lat="43.60734" lon="1.40934">
        <ele>138.2</ele>
        <time>2017-03-03T11:55:37Z</time>
      </trkpt>
      <trkpt lat="43.60731" lon="1.40929">
        <ele>138.2</ele>
        <time>2017-03-03T11:55:39Z</time>
      </trkpt>
      <trkpt lat="43.60721" lon="1.40914">
        <ele>138.2</ele>
        <time>2017-03-03T11:55:44Z</time>
      </trkpt>
      <trkpt lat="43.60714" lon="1.40902">
        <ele>138.2</ele>
        <time>2017-03-03T11:55:48Z</time>
      </trkpt>
      <trkpt lat="43.607" lon="1.40877">
        <ele>138.9</ele>
        <time>2017-03-03T11:55:58Z</time>
      </trkpt>
      <trkpt lat="43.60694" lon="1.40868">
        <ele>139.5</ele>
        <time>2017-03-03T11:56:01Z</time>
      </trkpt>
      <trkpt lat="43.60682" lon="1.40853">
        <ele>139.6</ele>
        <time>2017-03-03T11:56:05Z</time>
      </trkpt>
      <trkpt lat="43.60663" lon="1.40823">
        <ele>139.9</ele>
        <time>2017-03-03T11:56:15Z</time>
      </trkpt>
      <trkpt lat="43.60656" lon="1.40814">
        <ele>140</ele>
        <time>2017-03-03T11:56:19Z</time>
      </trkpt>
      <trkpt lat="43.60649" lon="1.40803">
        <ele>140.1</ele>
        <time>2017-03-03T11:56:23Z</time>
      </trkpt>
      <trkpt lat="43.60633" lon="1.4077">
        <ele>140.2</ele>
        <time>2017-03-03T11:56:32Z</time>
      </trkpt>
      <trkpt lat="43.60607" lon="1.40757">
        <ele>140.2</ele>
        <time>2017-03-03T11:56:41Z</time>
      </trkpt>
      <trkpt lat="43.6058" lon="1.40749">
        <ele>140.2</ele>
        <time>2017-03-03T11:56:50Z</time>
      </trkpt>
      <trkpt lat="43.60558" lon="1.40735">
        <ele>140.2</ele>
        <time>2017-03-03T11:57:00Z</time>
      </trkpt>
      <trkpt lat="43.60531" lon="1.40728">
        <ele>140</ele>
        <time>2017-03-03T11:57:10Z</time>
      </trkpt>
      <trkpt lat="43.60502" lon="1.40722">
        <ele>140</ele>
        <time>2017-03-03T11:57:20Z</time>
      </trkpt>
      <trkpt lat="43.60474" lon="1.40715">
        <ele>140.1</ele>
        <time>2017-03-03T11:57:29Z</time>
      </trkpt>
      <trkpt lat="43.60447" lon="1.407">
        <ele>140.2</ele>
        <time>2017-03-03T11:57:37Z</time>
      </trkpt>
      <trkpt lat="43.60423" lon="1.40696">
        <ele>140.3</ele>
        <time>2017-03-03T11:57:47Z</time>
      </trkpt>
      <trkpt lat="43.60394" lon="1.40704">
        <ele>140.4</ele>
        <time>2017-03-03T11:57:54Z</time>
      </trkpt>
      <trkpt lat="43.60366" lon="1.40707">
        <ele>140.7</ele>
        <time>2017-03-03T11:58:04Z</time>
      </trkpt>
      <trkpt lat="43.60343" lon="1.40713">
        <ele>140.9</ele>
        <time>2017-03-03T11:58:14Z</time>
      </trkpt>
      <trkpt lat="43.60318" lon="1.40728">
        <ele>141.1</ele>
        <time>2017-03-03T11:58:23Z</time>
      </trkpt>
      <trkpt lat="43.60308" lon="1.4076">
        <ele>141.7</ele>
        <time>2017-03-03T11:58:33Z</time>
      </trkpt>
      <trkpt lat="43.60295" lon="1.4079">
        <ele>141.9</ele>
        <time>2017-03-03T11:58:43Z</time>
      </trkpt>
      <trkpt lat="43.6028" lon="1.40822">
        <ele>142</ele>
        <time>2017-03-03T11:58:52Z</time>
      </trkpt>
      <trkpt lat="43.60267" lon="1.40851">
        <ele>142.1</ele>
        <time>2017-03-03T11:59:02Z</time>
      </trkpt>
      <trkpt lat="43.60251" lon="1.40883">
        <ele>142.3</ele>
        <time>2017-03-03T11:59:12Z</time>
      </trkpt>
      <trkpt lat="43.60239" lon="1.4092">
        <ele>142.7</ele>
        <time>2017-03-03T11:59:20Z</time>
      </trkpt>
      <trkpt lat="43.60228" lon="1.40948">
        <ele>143</ele>
        <time>2017-03-03T11:59:30Z</time>
      </trkpt>
      <trkpt lat="43.60218" lon="1.40985">
        <ele>143.1</ele>
        <time>2017-03-03T11:59:39Z</time>
      </trkpt>
      <trkpt lat="43.60204" lon="1.41009">
        <ele>143.4</ele>
        <time>2017-03-03T11:59:49Z</time>
      </trkpt>
      <trkpt lat="43.60187" lon="1.41035">
        <ele>143.5</ele>
        <time>2017-03-03T11:59:59Z</time>
      </trkpt>
      <trkpt lat="43.60172" lon="1.41069">
        <ele>143.5</ele>
        <time>2017-03-03T12:00:09Z</time>
      </trkpt>
      <trkpt lat="43.60161" lon="1.41101">
        <ele>143.7</ele>
        <time>2017-03-03T12:00:19Z</time>
      </trkpt>
      <trkpt lat="43.60141" lon="1.41129">
        <ele>143.8</ele>
        <time>2017-03-03T12:00:26Z</time>
      </trkpt>
      <trkpt lat="43.60113" lon="1.41139">
        <ele>143.8</ele>
        <time>2017-03-03T12:00:36Z</time>
      </trkpt>
      <trkpt lat="43.60087" lon="1.41135">
        <ele>144.2</ele>
        <time>2017-03-03T12:00:46Z</time>
      </trkpt>
      <trkpt lat="43.6006" lon="1.41135">
        <ele>144.5</ele>
        <time>2017-03-03T12:00:56Z</time>
      </trkpt>
      <trkpt lat="43.60033" lon="1.41139">
        <ele>144.6</ele>
        <time>2017-03-03T12:01:06Z</time>
      </trkpt>
      <trkpt lat="43.60004" lon="1.41129">
        <ele>144.6</ele>
        <time>2017-03-03T12:01:15Z</time>
      </trkpt>
      <trkpt lat="43.59978" lon="1.41124">
        <ele>144.6</ele>
        <time>2017-03-03T12:01:25Z</time>
      </trkpt>
      <trkpt lat="43.59951" lon="1.41121">
        <ele>144.6</ele>
        <time>2017-03-03T12:01:35Z</time>
      </trkpt>
      <trkpt lat="43.59923" lon="1.41115">
        <ele>144.5</ele>
        <time>2017-03-03T12:01:44Z</time>
      </trkpt>
      <trkpt lat="43.59896" lon="1.41108">
        <ele>137.8</ele>
        <time>2017-03-03T12:01:53Z</time>
      </trkpt>
      <trkpt lat="43.59869" lon="1.411">
        <ele>137.6</ele>
        <time>2017-03-03T12:02:03Z</time>
      </trkpt>
      <trkpt lat="43.59841" lon="1.41092">
        <ele>137.5</ele>
        <time>2017-03-03T12:02:13Z</time>
      </trkpt>
      <trkpt lat="43.59818" lon="1.41065">
        <ele>137.5</ele>
        <time>2017-03-03T12:02:20Z</time>
      </trkpt>
      <trkpt lat="43.59792" lon="1.41056">
        <ele>137.6</ele>
        <time>2017-03-03T12:02:30Z</time>
      </trkpt>
      <trkpt lat="43.59766" lon="1.41043">
        <ele>137.7</ele>
        <time>2017-03-03T12:02:39Z</time>
      </trkpt>
      <trkpt lat="43.59742" lon="1.41042">
        <ele>137.9</ele>
        <time>2017-03-03T12:02:49Z</time>
      </trkpt>
      <trkpt lat="43.59714" lon="1.41025">
        <ele>137.9</ele>
        <time>2017-03-03T12:02:58Z</time>
      </trkpt>
      <trkpt lat="43.59687" lon="1.41013">
        <ele>137.9</ele>
        <time>2017-03-03T12:03:08Z</time>
      </trkpt>
      <trkpt lat="43.5966" lon="1.41003">
        <ele>137.9</ele>
        <time>2017-03-03T12:03:18Z</time>
      </trkpt>
      <trkpt lat="43.59633" lon="1.40993">
        <ele>137.9</ele>
        <time>2017-03-03T12:03:26Z</time>
      </trkpt>
      <trkpt lat="43.5961" lon="1.41013">
        <ele>137.9</ele>
        <time>2017-03-03T12:03:36Z</time>
      </trkpt>
      <trkpt lat="43.59609" lon="1.41051">
        <ele>137.9</ele>
        <time>2017-03-03T12:03:47Z</time>
      </trkpt>
      <trkpt lat="43.59605" lon="1.41086">
        <ele>137.9</ele>
        <time>2017-03-03T12:03:57Z</time>
      </trkpt>
      <trkpt lat="43.59603" lon="1.4112">
        <ele>137.9</ele>
        <time>2017-03-03T12:04:07Z</time>
      </trkpt>
      <trkpt lat="43.59611" lon="1.41161">
        <ele>137.9</ele>
        <time>2017-03-03T12:04:16Z</time>
      </trkpt>
      <trkpt lat="43.59613" lon="1.41203">
        <ele>137.9</ele>
        <time>2017-03-03T12:04:26Z</time>
      </trkpt>
      <trkpt lat="43.59612" lon="1.41236">
        <ele>137.9</ele>
        <time>2017-03-03T12:04:36Z</time>
      </trkpt>
      <trkpt lat="43.59613" lon="1.41272">
        <ele>137.9</ele>
        <time>2017-03-03T12:04:46Z</time>
      </trkpt>
      <trkpt lat="43.5961" lon="1.41313">
        <ele>137.9</ele>
        <time>2017-03-03T12:04:56Z</time>
      </trkpt>
      <trkpt lat="43.59609" lon="1.41351">
        <ele>137.9</ele>
        <time>2017-03-03T12:05:05Z</time>
      </trkpt>
      <trkpt lat="43.59603" lon="1.41393">
        <ele>137.9</ele>
        <time>2017-03-03T12:05:14Z</time>
      </trkpt>
      <trkpt lat="43.59598" lon="1.41429">
        <ele>137.9</ele>
        <time>2017-03-03T12:05:24Z</time>
      </trkpt>
      <trkpt lat="43.59594" lon="1.41454">
        <ele>137.9</ele>
        <time>2017-03-03T12:05:34Z</time>
      </trkpt>
      <trkpt lat="43.59594" lon="1.41492">
        <ele>137.9</ele>
        <time>2017-03-03T12:05:43Z</time>
      </trkpt>
      <trkpt lat="43.59602" lon="1.41533">
        <ele>137.9</ele>
        <time>2017-03-03T12:05:52Z</time>
      </trkpt>
      <trkpt lat="43.59597" lon="1.41576">
        <ele>137.9</ele>
        <time>2017-03-03T12:06:02Z</time>
      </trkpt>
      <trkpt lat="43.59588" lon="1.41603">
        <ele>137.9</ele>
        <time>2017-03-03T12:06:12Z</time>
      </trkpt>
      <trkpt lat="43.59567" lon="1.41601">
        <ele>137.9</ele>
        <time>2017-03-03T12:06:22Z</time>
      </trkpt>
      <trkpt lat="43.59538" lon="1.41591">
        <ele>137.9</ele>
        <time>2017-03-03T12:06:32Z</time>
      </trkpt>
      <trkpt lat="43.59514" lon="1.41596">
        <ele>137.9</ele>
        <time>2017-03-03T12:06:42Z</time>
      </trkpt>
      <trkpt lat="43.59492" lon="1.41586">
        <ele>137.9</ele>
        <time>2017-03-03T12:06:52Z</time>
      </trkpt>
      <trkpt lat="43.59484" lon="1.4158">
        <ele>137.9</ele>
        <time>2017-03-03T12:06:59Z</time>
      </trkpt>
      <trkpt lat="43.59484" lon="1.4158">
        <ele>139.4</ele>
        <time>2017-03-03T12:06:59Z</time>
      </trkpt>
      <trkpt lat="43.59484" lon="1.4158">
        <ele>139.4</ele>
        <time>2017-03-03T12:07:01Z</time>
      </trkpt>
    </trkseg>
  </trk>
</gpx>